createdAt,value
2017-04-23T00:06:31.073Z,1013.5
2017-04-23T00:16:42.584Z,1013.6
2017-04-23T00:26:54.028Z,1013.5
2017-04-23T00:37:05.488Z,1013.5
2017-04-23T00:47:17.055Z,1013.4
2017-04-23T00:57:28.597Z,1013.4
2017-04-23T01:07:40.127Z,1013.5
2017-04-23T01:17:51.653Z,1013.4
2017-04-23T01:28:03.224Z,1013.4
2017-04-23T01:38:14.757Z,1013.5
2017-04-23T01:48:26.335Z,1013.5
2017-04-23T01:58:37.878Z,1013.5
2017-04-23T02:08:49.424Z,1013.4
2017-04-23T02:19:01.040Z,1013.5
2017-04-23T02:29:12.717Z,1013.4
2017-04-23T02:39:24.448Z,1013.4
2017-04-23T02:49:36.172Z,1013.4
2017-04-23T02:59:47.948Z,1013.4
2017-04-23T03:09:59.718Z,1013.5
2017-04-23T03:20:11.479Z,1013.6
2017-04-23T03:30:23.238Z,1013.6
2017-04-23T03:40:34.964Z,1013.6
2017-04-23T03:50:46.757Z,1013.6
2017-04-23T04:00:58.543Z,1013.5
2017-04-23T04:11:10.230Z,1013.8
2017-04-23T04:21:21.911Z,1013.6
2017-04-23T04:31:33.629Z,1013.6
2017-04-23T04:41:45.278Z,1013.7
2017-04-23T04:51:56.826Z,1013.8
2017-04-23T05:02:08.256Z,1013.8
2017-04-23T05:12:19.660Z,1013.9
2017-04-23T05:22:30.949Z,1014
2017-04-23T05:32:42.119Z,1014
2017-04-23T05:42:53.241Z,1014.1
2017-04-23T05:53:04.269Z,1014.2
2017-04-23T06:03:15.203Z,1014.4
2017-04-23T06:13:25.975Z,1014.3
2017-04-23T06:23:36.701Z,1014.2
2017-04-23T06:33:47.311Z,1014.1
2017-04-23T06:43:57.791Z,1014.5
2017-04-23T06:54:08.045Z,1014.4
2017-04-23T07:04:18.430Z,1014.5
2017-04-23T07:14:28.874Z,1014.8
2017-04-23T07:24:39.285Z,1014.6
2017-04-23T07:34:49.692Z,1014.6
2017-04-23T07:44:59.994Z,1014.5
2017-04-23T07:55:10.037Z,1014.5
2017-04-23T08:05:20.096Z,1014.7
2017-04-23T08:15:29.866Z,1014.6
2017-04-23T08:25:39.627Z,1014.6
2017-04-23T08:35:49.549Z,1014.7
2017-04-23T08:45:59.215Z,1014.6
2017-04-23T08:56:08.944Z,1014.7
2017-04-23T09:06:18.708Z,1014.6
2017-04-23T09:16:28.293Z,1014.4
2017-04-23T09:26:37.866Z,1014.2
2017-04-23T09:36:47.680Z,1014.5
2017-04-23T09:46:57.663Z,1014.4
2017-04-23T09:57:07.735Z,1014.7
2017-04-23T10:07:17.541Z,1014.4
2017-04-23T10:17:27.402Z,1014.5
2017-04-23T10:27:37.541Z,1014.6
2017-04-23T10:37:47.866Z,1014.8
2017-04-23T10:47:58.078Z,1014.6
2017-04-23T10:58:08.048Z,1014.7
2017-04-23T11:08:17.880Z,1015.2
2017-04-23T11:18:27.559Z,1015.3
2017-04-23T11:28:37.052Z,1015.2
2017-04-23T11:38:46.273Z,1014.5
2017-04-23T11:48:55.570Z,1014.3
2017-04-23T11:59:04.994Z,1014
2017-04-23T12:09:14.790Z,1014.1
2017-04-23T12:19:24.845Z,1014.1
2017-04-23T12:29:34.772Z,1014
2017-04-23T12:39:44.585Z,1013.9
2017-04-23T12:49:54.194Z,1014
2017-04-23T13:00:03.567Z,1014
2017-04-23T13:10:13.114Z,1014.2
2017-04-23T13:20:22.553Z,1013.9
2017-04-23T13:30:32.110Z,1013.9
2017-04-23T13:40:42.010Z,1013.9
2017-04-23T13:50:52.026Z,1013.9
2017-04-23T14:01:02.086Z,1013.8
2017-04-23T14:11:12.033Z,1013.9
2017-04-23T14:21:21.952Z,1013.9
2017-04-23T14:31:31.747Z,1013.9
2017-04-23T14:41:41.386Z,1013.7
2017-04-23T14:51:51.067Z,1014
2017-04-23T15:02:00.641Z,1013.9
2017-04-23T15:12:10.181Z,1013.8
2017-04-23T15:22:19.378Z,1013.9
2017-04-23T15:32:28.378Z,1013.7
2017-04-23T15:42:37.407Z,1013.6
2017-04-23T15:52:47.034Z,1013.5
2017-04-23T16:02:57.137Z,1013.5
2017-04-23T16:13:07.467Z,1013.5
2017-04-23T16:23:17.889Z,1013.5
2017-04-23T16:33:28.347Z,1013.4
2017-04-23T16:43:38.845Z,1013.5
2017-04-23T16:53:49.400Z,1013.5
2017-04-23T17:03:59.959Z,1013.5
2017-04-23T17:14:10.522Z,1013.6
2017-04-23T17:24:21.026Z,1013.5
2017-04-23T17:34:31.588Z,1013.5
2017-04-23T17:44:42.175Z,1013.5
2017-04-23T17:54:52.772Z,1013.4
2017-04-23T18:05:03.330Z,1013.5
2017-04-23T18:15:13.975Z,1013.4
2017-04-23T18:25:24.752Z,1013.4
2017-04-23T18:35:35.495Z,1013.5
2017-04-23T18:45:46.314Z,1013.4
2017-04-23T18:55:57.224Z,1013.4
2017-04-23T19:06:08.093Z,1013.4
2017-04-23T19:16:18.991Z,1013.5
2017-04-23T19:26:29.970Z,1013.5
2017-04-23T19:36:41.071Z,1013.6
2017-04-23T19:46:52.059Z,1013.6
2017-04-23T19:57:03.163Z,1013.6
2017-04-23T20:07:14.316Z,1013.5
2017-04-23T20:17:25.484Z,1013.5
2017-04-23T20:27:36.689Z,1013.4
2017-04-23T20:37:47.836Z,1013.4
2017-04-23T20:47:59.073Z,1013.2
2017-04-23T20:58:10.305Z,1013.2
2017-04-23T21:08:21.615Z,1013.2
2017-04-23T21:18:32.888Z,1013.1
2017-04-23T21:28:44.211Z,1013
2017-04-23T21:38:55.575Z,1012.9
2017-04-23T21:49:06.992Z,1012.8
2017-04-23T21:59:18.369Z,1012.8
2017-04-23T22:09:29.776Z,1012.7
2017-04-23T22:19:41.155Z,1012.5
2017-04-23T22:29:52.610Z,1012.5
2017-04-23T22:40:03.996Z,1012.4
2017-04-23T22:50:15.431Z,1012.4
2017-04-23T23:00:26.885Z,1012.2
2017-04-23T23:10:38.314Z,1012.1
2017-04-23T23:20:49.757Z,1012
2017-04-23T23:31:01.317Z,1011.9
2017-04-23T23:41:12.918Z,1011.7
2017-04-23T23:51:24.543Z,1011.6
